KIAG/IAG METAR and TAF weather

Enter ICAO airport designator
Station Type Date Time Source
KIAG METAR 2019/09/20 09:53 UTC NOAA

KIAG 200953Z AUTO 00000KT 10SM CLR 10/09 A3020 RMK AO2 SLP228 T01000089


Station Type Date Time Source
KIAG Decoded METAR 2019/09/20 09:53 UTC NOAA

NIAGARA FALLS INTERNATIONAL AIRPORT, NY, United States (KIAG) 43-07N 078-56W 182M
Sep 20, 2019 - 05:53 AM EDT / 2019.09.20 0953 UTC
Wind: Calm:0
Visibility: 10 mile(s):0
Sky conditions: clear
Temperature: 50.0 F (10.0 C)
Dew Point: 48.0 F (8.9 C)
Relative Humidity: 92%
Pressure (altimeter): 30.2 in. Hg (1022 hPa)
ob: KIAG 200953Z AUTO 00000KT 10SM CLR 10/09 A3020 RMK AO2 SLP228 T01000089
cycle: 10

Station Type Date Time Source
KIAG TAF 2019/09/20 09:04 UTC NOAA

TAF
AMD KIAG 200902Z 2009/2106 14004KT P6SM SKC
FM201400 21006KT P6SM FEW250
FM201700 VRB03KT P6SM FEW250
FM210500 18005KT P6SM FEW250

Example: see airport list